Time;durP1;ratioP1;P1;durP2;ratioP2;P2;SDS_P1;SDS_P2;PMS_P1;PMS_P2;Temp;Humidity;BMP_temperature;BMP_pressure;BME280_temperature;BME280_humidity;BME280_pressure;Samples;Min_cycle;Max_cycle;Signal;HPM_P1;HPM_P2
2022/02/13 00:03:00;;;;;;;290.85;70.88;;;;;;;;;;5093978;28;20220;-74
2022/02/13 00:05:28;;;;;;;296.55;70.43;;;;;;;;;;5098538;28;20233;-74
2022/02/13 00:07:56;;;;;;;283.05;70.03;;;;;;;;;;5099300;28;20201;-74
2022/02/13 00:10:26;;;;;;;300.52;72.13;;;;;;;;;;5099189;28;20585;-74
2022/02/13 00:12:57;;;;;;;296.48;74.30;;;;;;;;;;5098208;28;20206;-74
2022/02/13 00:15:26;;;;;;;288.77;68.82;;;;;;;;;;5097567;28;20289;-74
2022/02/13 00:17:54;;;;;;;290.85;71.78;;;;;;;;;;5097969;28;20198;-74
2022/02/13 00:20:33;;;;;;;301.92;74.07;;;;;;;;;;5098315;28;20288;-74
2022/02/13 00:23:01;;;;;;;298.27;75.78;;;;;;;;;;5098661;28;20508;-75
2022/02/13 00:25:29;;;;;;;299.30;72.13;;;;;;;;;;5098260;28;20559;-74
2022/02/13 00:27:58;;;;;;;301.38;73.93;;;;;;;;;;5098436;28;20209;-74
2022/02/13 00:30:26;;;;;;;296.30;70.90;;;;;;;;;;5098300;28;20206;-74
2022/02/13 00:32:56;;;;;;;289.75;71.43;;;;;;;;;;5098185;28;20267;-74
2022/02/13 00:35:26;;;;;;;286.92;70.30;;;;;;;;;;5097716;28;20201;-74
2022/02/13 00:38:08;;;;;;;306.58;74.82;;;;;;;;;;5098200;28;20206;-74
2022/02/13 00:40:42;;;;;;;292.25;71.38;;;;;;;;;;5097905;28;20255;-74
2022/02/13 00:43:21;;;;;;;289.02;69.63;;;;;;;;;;5097244;28;20233;-73
2022/02/13 00:49:12;;;;;;;293.00;78.63;;;;;;;;;;5077321;28;20629;-75
2022/02/13 00:52:06;;;;;;;294.13;68.55;;;;;;;;;;5097479;28;20273;-74
2022/02/13 00:55:10;;;;;;;296.42;70.00;;;;;;;;;;5097215;28;20233;-74
2022/02/13 00:57:40;;;;;;;288.48;69.22;;;;;;;;;;5097142;28;20206;-75
2022/02/13 01:00:09;;;;;;;299.50;73.13;;;;;;;;;;5096326;28;20205;-74
2022/02/13 01:02:37;;;;;;;291.42;69.28;;;;;;;;;;5096540;28;20229;-75
2022/02/13 01:05:05;;;;;;;297.20;71.90;;;;;;;;;;5095833;28;20209;-74
2022/02/13 01:07:34;;;;;;;296.02;75.38;;;;;;;;;;5097006;28;20644;-75
2022/02/13 01:10:02;;;;;;;293.20;72.60;;;;;;;;;;5096690;28;20312;-74
2022/02/13 01:12:30;;;;;;;290.13;73.70;;;;;;;;;;5096474;28;20213;-74
2022/02/13 01:14:58;;;;;;;298.63;73.05;;;;;;;;;;5097479;28;20205;-74
2022/02/13 01:17:25;;;;;;;296.52;73.40;;;;;;;;;;5095335;28;20206;-74
2022/02/13 01:19:56;;;;;;;293.85;69.82;;;;;;;;;;5097196;28;20654;-74
2022/02/13 01:22:24;;;;;;;294.10;73.25;;;;;;;;;;5095736;28;20206;-74
2022/02/13 01:24:54;;;;;;;291.83;72.30;;;;;;;;;;5097289;28;20213;-74
2022/02/13 01:27:21;;;;;;;290.33;70.65;;;;;;;;;;5094332;28;20719;-73
2022/02/13 01:29:49;;;;;;;286.88;68.32;;;;;;;;;;5095457;28;20253;-74
2022/02/13 01:32:19;;;;;;;296.33;72.13;;;;;;;;;;5095568;28;20259;-74
2022/02/13 01:34:47;;;;;;;286.45;70.55;;;;;;;;;;5095904;28;20212;-73
2022/02/13 01:37:15;;;;;;;289.33;73.28;;;;;;;;;;5095821;28;20210;-74
2022/02/13 01:39:45;;;;;;;293.30;71.68;;;;;;;;;;5096061;28;20275;-74
2022/02/13 01:42:14;;;;;;;300.75;74.78;;;;;;;;;;5096756;28;20483;-74
2022/02/13 01:44:42;;;;;;;291.77;70.15;;;;;;;;;;5096309;28;20230;-73
2022/02/13 01:47:10;;;;;;;304.92;75.90;;;;;;;;;;5095944;28;20217;-75
2022/02/13 01:49:38;;;;;;;300.17;73.53;;;;;;;;;;5096192;28;20259;-74
2022/02/13 01:52:06;;;;;;;290.42;70.15;;;;;;;;;;5095471;28;20200;-73
2022/02/13 01:54:34;;;;;;;278.67;69.00;;;;;;;;;;5095463;28;20209;-73
2022/02/13 01:57:01;;;;;;;287.35;69.25;;;;;;;;;;5094838;28;20206;-74
2022/02/13 01:59:33;;;;;;;285.33;74.57;;;;;;;;;;5095059;28;20202;-73
2022/02/13 02:02:01;;;;;;;278.42;70.20;;;;;;;;;;5094378;28;20609;-74
2022/02/13 02:04:29;;;;;;;288.75;75.55;;;;;;;;;;5093846;28;20236;-74
2022/02/13 02:06:58;;;;;;;287.88;67.72;;;;;;;;;;5095774;28;20496;-73
2022/02/13 02:09:27;;;;;;;294.63;73.90;;;;;;;;;;5095565;28;20215;-73
2022/02/13 02:11:56;;;;;;;290.58;71.85;;;;;;;;;;5093903;28;20198;-74
2022/02/13 02:14:23;;;;;;;287.95;69.90;;;;;;;;;;5095752;28;20260;-74
2022/02/13 02:16:53;;;;;;;293.33;74.78;;;;;;;;;;5094749;28;20201;-74
2022/02/13 02:19:20;;;;;;;285.42;70.70;;;;;;;;;;5094928;28;20296;-74
2022/02/13 02:21:48;;;;;;;281.17;69.28;;;;;;;;;;5094740;28;20212;-74
2022/02/13 02:24:18;;;;;;;294.15;74.95;;;;;;;;;;5093752;28;20225;-74
2022/02/13 02:26:47;;;;;;;288.02;73.00;;;;;;;;;;5094056;28;20197;-74
2022/02/13 02:29:15;;;;;;;298.88;71.70;;;;;;;;;;5095116;28;20213;-73
2022/02/13 02:31:43;;;;;;;292.50;71.03;;;;;;;;;;5094609;28;20205;-74
2022/02/13 02:34:10;;;;;;;299.85;74.10;;;;;;;;;;5095017;28;20205;-74
2022/02/13 02:36:39;;;;;;;286.30;73.03;;;;;;;;;;5095911;28;20231;-73
2022/02/13 02:39:07;;;;;;;287.92;72.07;;;;;;;;;;5097695;28;20252;-74
2022/02/13 02:41:38;;;;;;;288.67;71.45;;;;;;;;;;5099478;28;20205;-73
2022/02/13 02:44:15;;;;;;;289.45;74.60;;;;;;;;;;5099058;28;20232;-74
2022/02/13 02:46:43;;;;;;;297.95;73.20;;;;;;;;;;5098118;28;20205;-74
2022/02/13 02:49:10;;;;;;;294.40;72.18;;;;;;;;;;5099626;28;20227;-73
2022/02/13 02:51:38;;;;;;;285.85;69.07;;;;;;;;;;5099863;28;20679;-73
2022/02/13 02:54:06;;;;;;;285.30;70.70;;;;;;;;;;5098584;28;20193;-73
2022/02/13 02:56:33;;;;;;;287.88;74.50;;;;;;;;;;5099854;28;20282;-73
2022/02/13 02:59:03;;;;;;;287.50;70.70;;;;;;;;;;5099566;28;20206;-73
2022/02/13 03:01:31;;;;;;;285.08;72.80;;;;;;;;;;5098899;28;20275;-73
2022/02/13 03:03:59;;;;;;;288.92;74.53;;;;;;;;;;5098330;28;20503;-73
2022/02/13 03:06:26;;;;;;;297.90;71.65;;;;;;;;;;5097834;28;20288;-74
2022/02/13 03:08:54;;;;;;;299.13;74.13;;;;;;;;;;5098447;28;20636;-73
2022/02/13 03:11:25;;;;;;;282.52;69.20;;;;;;;;;;5098764;28;20205;-74
2022/02/13 03:13:53;;;;;;;287.05;73.18;;;;;;;;;;5099050;28;20201;-74
2022/02/13 03:16:22;;;;;;;289.55;71.47;;;;;;;;;;5098447;28;20271;-74
2022/02/13 03:18:50;;;;;;;299.20;75.20;;;;;;;;;;5098281;28;20687;-73
2022/02/13 03:21:18;;;;;;;304.08;75.75;;;;;;;;;;5098151;28;20216;-73
2022/02/13 03:23:46;;;;;;;297.38;71.15;;;;;;;;;;5098316;28;20335;-73
2022/02/13 03:26:14;;;;;;;292.88;71.03;;;;;;;;;;5098862;28;20576;-74
2022/02/13 03:28:42;;;;;;;299.52;72.80;;;;;;;;;;5098848;28;20439;-74
2022/02/13 03:31:11;;;;;;;298.73;77.20;;;;;;;;;;5079879;28;20209;-73
2022/02/13 03:33:40;;;;;;;296.45;71.97;;;;;;;;;;5097658;28;20296;-73
2022/02/13 03:36:08;;;;;;;293.02;72.13;;;;;;;;;;5097872;28;20198;-74
2022/02/13 03:38:36;;;;;;;283.17;71.13;;;;;;;;;;5097261;28;20586;-73
2022/02/13 03:41:03;;;;;;;299.63;73.15;;;;;;;;;;5098281;28;20206;-75
2022/02/13 03:43:31;;;;;;;290.13;74.43;;;;;;;;;;5098077;28;20635;-74
2022/02/13 03:45:59;;;;;;;298.70;75.78;;;;;;;;;;5097150;28;20462;-74
2022/02/13 03:48:27;;;;;;;286.05;71.80;;;;;;;;;;5097748;28;20193;-74
2022/02/13 03:50:56;;;;;;;290.27;69.20;;;;;;;;;;5096168;28;20553;-74
2022/02/13 03:53:24;;;;;;;292.45;73.03;;;;;;;;;;5097941;28;20263;-75
2022/02/13 03:55:52;;;;;;;291.65;71.63;;;;;;;;;;5097416;28;20500;-74
2022/02/13 03:58:20;;;;;;;285.90;68.70;;;;;;;;;;5097336;28;20206;-74
2022/02/13 04:00:48;;;;;;;292.75;71.80;;;;;;;;;;5097375;28;20264;-74
2022/02/13 04:03:16;;;;;;;292.42;73.43;;;;;;;;;;5096899;28;20263;-75
2022/02/13 04:05:47;;;;;;;293.88;72.93;;;;;;;;;;5076651;28;20209;-74
2022/02/13 04:08:19;;;;;;;283.52;69.90;;;;;;;;;;5093629;28;20202;-75
2022/02/13 04:10:53;;;;;;;294.10;68.55;;;;;;;;;;5098934;28;20224;-75
2022/02/13 04:13:27;;;;;;;295.27;72.32;;;;;;;;;;5096941;28;20216;-74
2022/02/13 04:15:55;;;;;;;290.23;70.97;;;;;;;;;;5096402;28;20568;-74
2022/02/13 04:18:23;;;;;;;290.13;70.35;;;;;;;;;;5096887;28;20208;-75
2022/02/13 04:20:50;;;;;;;296.55;77.22;;;;;;;;;;5096198;28;20212;-74
2022/02/13 04:23:19;;;;;;;302.45;77.47;;;;;;;;;;5097138;28;20283;-74
2022/02/13 04:25:50;;;;;;;294.42;70.85;;;;;;;;;;5097943;28;20205;-74
2022/02/13 04:28:18;;;;;;;291.67;71.32;;;;;;;;;;5097571;28;20206;-74
2022/02/13 04:30:49;;;;;;;302.63;72.72;;;;;;;;;;5098138;28;20205;-75
2022/02/13 04:33:17;;;;;;;285.45;70.88;;;;;;;;;;5098086;28;20224;-74
2022/02/13 04:35:45;;;;;;;291.67;73.43;;;;;;;;;;5098265;28;20209;-75
2022/02/13 04:38:13;;;;;;;285.50;69.22;;;;;;;;;;5097891;28;20629;-74
2022/02/13 04:40:42;;;;;;;275.10;71.90;;;;;;;;;;5097040;28;20209;-75
2022/02/13 04:43:10;;;;;;;271.05;69.00;;;;;;;;;;5097434;28;20202;-74
2022/02/13 04:45:38;;;;;;;273.42;67.22;;;;;;;;;;5097449;28;20570;-75
2022/02/13 04:48:06;;;;;;;272.75;69.75;;;;;;;;;;5097713;28;20197;-74
2022/02/13 04:50:34;;;;;;;297.10;69.05;;;;;;;;;;5097676;28;20206;-74
2022/02/13 04:53:03;;;;;;;289.50;67.97;;;;;;;;;;5097265;28;20605;-74
2022/02/13 04:55:31;;;;;;;296.70;74.20;;;;;;;;;;5096720;28;20205;-74
2022/02/13 04:58:04;;;;;;;299.55;69.85;;;;;;;;;;5097171;28;20594;-75
2022/02/13 05:00:32;;;;;;;298.85;74.63;;;;;;;;;;5097460;28;20220;-74
2022/02/13 05:03:00;;;;;;;290.13;68.57;;;;;;;;;;5096795;28;20482;-73
2022/02/13 05:05:27;;;;;;;287.95;69.95;;;;;;;;;;5096573;28;20614;-74
2022/02/13 05:07:55;;;;;;;281.23;68.30;;;;;;;;;;5097459;28;20292;-74
2022/02/13 05:10:24;;;;;;;277.83;65.85;;;;;;;;;;5097258;28;20205;-73
2022/02/13 05:12:52;;;;;;;284.73;72.35;;;;;;;;;;5097411;28;20859;-74
2022/02/13 05:15:21;;;;;;;279.75;69.38;;;;;;;;;;5097349;28;20202;-74
2022/02/13 05:17:49;;;;;;;294.98;74.78;;;;;;;;;;5097140;28;20290;-74
2022/02/13 05:20:17;;;;;;;279.63;68.00;;;;;;;;;;5097061;28;20610;-74
2022/02/13 05:22:44;;;;;;;284.65;69.50;;;;;;;;;;5096622;28;20209;-75
2022/02/13 05:25:12;;;;;;;286.42;68.20;;;;;;;;;;5097103;28;20267;-74
2022/02/13 05:27:40;;;;;;;274.77;65.60;;;;;;;;;;5096901;28;20205;-73
2022/02/13 05:30:08;;;;;;;273.30;67.88;;;;;;;;;;5096672;28;20297;-74
2022/02/13 05:32:37;;;;;;;269.38;68.05;;;;;;;;;;5096701;28;20297;-74
2022/02/13 05:35:05;;;;;;;273.08;69.80;;;;;;;;;;5096227;28;20211;-74
2022/02/13 05:37:34;;;;;;;265.38;68.95;;;;;;;;;;5096078;28;20613;-74
2022/02/13 05:40:01;;;;;;;282.00;71.68;;;;;;;;;;5096490;28;20213;-74
2022/02/13 05:42:29;;;;;;;281.10;68.70;;;;;;;;;;5096952;28;20206;-74
2022/02/13 05:44:58;;;;;;;285.90;72.45;;;;;;;;;;5096713;28;20221;-74
2022/02/13 05:47:26;;;;;;;279.55;72.05;;;;;;;;;;5096674;28;20209;-75
2022/02/13 05:49:55;;;;;;;272.80;71.90;;;;;;;;;;5096599;28;20206;-74
2022/02/13 05:52:22;;;;;;;265.30;69.55;;;;;;;;;;5096390;28;20470;-74
2022/02/13 05:54:50;;;;;;;273.20;68.10;;;;;;;;;;5096074;28;20197;-74
2022/02/13 05:57:18;;;;;;;276.15;72.65;;;;;;;;;;5096105;28;20594;-74
2022/02/13 05:59:46;;;;;;;283.70;76.35;;;;;;;;;;5095953;28;20206;-74
2022/02/13 06:02:13;;;;;;;273.17;71.68;;;;;;;;;;5096512;28;20267;-74
2022/02/13 06:04:41;;;;;;;273.50;66.90;;;;;;;;;;5095978;28;20231;-74
2022/02/13 06:07:11;;;;;;;279.05;70.50;;;;;;;;;;5095658;28;20213;-73
2022/02/13 06:09:38;;;;;;;262.77;69.63;;;;;;;;;;5095814;28;20262;-74
2022/02/13 06:12:13;;;;;;;268.58;70.57;;;;;;;;;;5095916;28;20244;-74
2022/02/13 06:14:41;;;;;;;262.02;68.40;;;;;;;;;;5095699;28;20192;-74
2022/02/13 06:17:08;;;;;;;263.75;67.30;;;;;;;;;;5096804;28;20209;-74
2022/02/13 06:19:36;;;;;;;273.35;74.00;;;;;;;;;;5095697;28;20205;-74
2022/02/13 06:22:04;;;;;;;273.38;71.78;;;;;;;;;;5096210;28;20567;-74
2022/02/13 06:24:40;;;;;;;279.65;74.55;;;;;;;;;;5095421;28;20241;-74
2022/02/13 06:27:08;;;;;;;273.48;71.75;;;;;;;;;;5084635;28;20276;-74
2022/02/13 06:29:36;;;;;;;279.73;71.85;;;;;;;;;;5085828;28;20545;-74
2022/02/13 06:32:04;;;;;;;289.13;68.60;;;;;;;;;;5090076;28;20230;-74
2022/02/13 06:34:31;;;;;;;286.15;70.97;;;;;;;;;;5086779;28;20233;-74
2022/02/13 06:36:59;;;;;;;288.17;70.43;;;;;;;;;;5083998;28;20203;-74
2022/02/13 06:39:27;;;;;;;281.67;70.72;;;;;;;;;;5083711;28;20198;-74
2022/02/13 06:41:56;;;;;;;268.05;74.30;;;;;;;;;;5087399;28;20201;-74
2022/02/13 06:44:24;;;;;;;262.27;69.60;;;;;;;;;;5084415;28;20226;-74
2022/02/13 06:46:52;;;;;;;271.88;75.47;;;;;;;;;;5084034;28;20202;-73
2022/02/13 06:49:20;;;;;;;293.10;76.35;;;;;;;;;;5083749;28;20206;-74
2022/02/13 06:51:48;;;;;;;289.63;75.22;;;;;;;;;;5088274;28;20562;-74
2022/02/13 06:54:15;;;;;;;301.27;76.30;;;;;;;;;;5088299;28;20198;-73
2022/02/13 06:56:43;;;;;;;290.70;72.50;;;;;;;;;;5091800;28;20292;-74
2022/02/13 06:59:12;;;;;;;271.13;69.97;;;;;;;;;;5086742;28;20585;-74
2022/02/13 07:01:43;;;;;;;285.45;69.25;;;;;;;;;;5081274;28;20205;-74
2022/02/13 07:04:11;;;;;;;295.27;77.50;;;;;;;;;;5085717;28;20241;-74
2022/02/13 07:06:42;;;;;;;270.10;69.30;;;;;;;;;;5087504;28;20234;-75
2022/02/13 07:09:10;;;;;;;274.20;71.07;;;;;;;;;;5086891;28;20300;-74
2022/02/13 07:11:37;;;;;;;267.48;69.93;;;;;;;;;;5084206;28;20218;-74
2022/02/13 07:14:05;;;;;;;268.25;68.10;;;;;;;;;;5090123;28;20508;-74
2022/02/13 07:16:34;;;;;;;262.77;72.68;;;;;;;;;;5086166;28;20213;-74
2022/02/13 07:19:02;;;;;;;246.82;68.57;;;;;;;;;;5084744;28;20566;-74
2022/02/13 07:21:29;;;;;;;284.65;72.22;;;;;;;;;;5085799;28;20216;-74
2022/02/13 07:23:57;;;;;;;266.13;68.10;;;;;;;;;;5086969;28;20190;-74
2022/02/13 07:26:25;;;;;;;256.80;67.50;;;;;;;;;;5086511;28;20237;-74
2022/02/13 07:29:02;;;;;;;256.60;72.28;;;;;;;;;;5087840;28;20200;-74
2022/02/13 07:31:30;;;;;;;253.38;69.22;;;;;;;;;;5087991;28;20212;-74
2022/02/13 07:33:59;;;;;;;266.10;81.13;;;;;;;;;;5086692;28;20224;-74
2022/02/13 07:36:28;;;;;;;267.65;72.93;;;;;;;;;;5086504;28;20197;-74
2022/02/13 07:38:56;;;;;;;287.67;74.25;;;;;;;;;;5088380;28;20209;-74
2022/02/13 07:41:25;;;;;;;292.85;72.43;;;;;;;;;;5086500;28;20212;-73
2022/02/13 07:43:53;;;;;;;301.90;78.75;;;;;;;;;;5092232;28;20233;-74
2022/02/13 07:46:22;;;;;;;300.90;75.70;;;;;;;;;;5090043;28;20641;-74
2022/02/13 07:48:53;;;;;;;291.92;73.47;;;;;;;;;;5088000;28;20607;-75
2022/02/13 07:51:28;;;;;;;290.85;75.50;;;;;;;;;;5088592;28;20204;-74
2022/02/13 07:53:59;;;;;;;294.73;72.47;;;;;;;;;;5088439;28;20293;-74
2022/02/13 07:56:27;;;;;;;290.17;71.43;;;;;;;;;;5085057;28;20297;-74
2022/02/13 07:59:08;;;;;;;284.70;66.80;;;;;;;;;;5078588;28;20214;-76
2022/02/13 08:01:39;;;;;;;302.73;74.10;;;;;;;;;;5077746;28;20202;-75
2022/02/13 08:04:09;;;;;;;287.70;70.88;;;;;;;;;;5086902;28;20208;-74
2022/02/13 08:06:39;;;;;;;287.50;69.95;;;;;;;;;;5094823;28;21337;-75
2022/02/13 08:09:07;;;;;;;298.08;74.38;;;;;;;;;;5087078;28;20209;-74
2022/02/13 08:11:34;;;;;;;289.70;73.03;;;;;;;;;;5088498;28;20651;-75
2022/02/13 08:14:03;;;;;;;291.83;71.90;;;;;;;;;;5087137;28;20209;-74
2022/02/13 08:16:31;;;;;;;299.10;77.30;;;;;;;;;;5088250;28;20194;-74
2022/02/13 08:18:59;;;;;;;295.77;71.78;;;;;;;;;;5085702;28;20241;-74
2022/02/13 08:21:27;;;;;;;305.00;76.15;;;;;;;;;;5088128;28;20201;-73
2022/02/13 08:23:56;;;;;;;300.15;81.93;;;;;;;;;;5086724;28;20673;-74
2022/02/13 08:26:24;;;;;;;295.75;71.57;;;;;;;;;;5088197;28;20253;-73
2022/02/13 08:28:52;;;;;;;294.08;74.60;;;;;;;;;;5085286;28;20470;-75
2022/02/13 08:31:20;;;;;;;298.35;72.70;;;;;;;;;;5087769;28;20206;-74
2022/02/13 08:33:50;;;;;;;301.52;70.82;;;;;;;;;;5089242;28;20202;-74
2022/02/13 08:36:18;;;;;;;301.33;73.88;;;;;;;;;;5096306;28;20194;-74
2022/02/13 08:38:46;;;;;;;307.35;80.78;;;;;;;;;;5097027;28;20274;-74
2022/02/13 08:41:15;;;;;;;303.15;75.07;;;;;;;;;;5097229;28;20582;-74
2022/02/13 08:43:43;;;;;;;301.25;76.40;;;;;;;;;;5088319;28;20765;-74
2022/02/13 08:46:12;;;;;;;298.80;75.20;;;;;;;;;;5084743;28;20229;-74
2022/02/13 08:48:47;;;;;;;311.58;83.05;;;;;;;;;;5085226;28;20207;-76
2022/02/13 08:51:16;;;;;;;289.85;69.75;;;;;;;;;;5096806;28;20205;-74
2022/02/13 08:53:43;;;;;;;303.33;72.45;;;;;;;;;;5084551;28;20202;-74
2022/02/13 08:56:12;;;;;;;313.17;79.30;;;;;;;;;;5091396;28;20199;-74
2022/02/13 08:58:41;;;;;;;319.20;76.00;;;;;;;;;;5091406;28;20197;-74
2022/02/13 09:01:09;;;;;;;306.00;78.25;;;;;;;;;;5097456;28;20263;-73
2022/02/13 09:03:36;;;;;;;299.45;75.00;;;;;;;;;;5094185;28;20244;-74
2022/02/13 09:06:08;;;;;;;302.02;75.50;;;;;;;;;;5090837;28;20502;-74
2022/02/13 09:08:36;;;;;;;296.80;72.00;;;;;;;;;;5087148;28;20198;-74
2022/02/13 09:11:04;;;;;;;288.73;71.53;;;;;;;;;;5093040;28;20229;-74
2022/02/13 09:13:34;;;;;;;311.23;82.05;;;;;;;;;;5087543;28;20194;-74
2022/02/13 09:16:04;;;;;;;296.42;74.55;;;;;;;;;;5084520;28;20281;-74
2022/02/13 09:18:32;;;;;;;288.45;74.22;;;;;;;;;;5086663;28;20198;-74
2022/02/13 09:20:59;;;;;;;309.52;78.53;;;;;;;;;;5085556;28;20206;-76
2022/02/13 09:23:27;;;;;;;304.02;76.28;;;;;;;;;;5085877;28;20210;-73
2022/02/13 09:25:55;;;;;;;301.42;74.75;;;;;;;;;;5085465;28;20221;-74
2022/02/13 09:28:23;;;;;;;303.67;80.85;;;;;;;;;;5083027;28;20785;-74
2022/02/13 09:30:56;;;;;;;306.45;80.50;;;;;;;;;;5081757;28;20582;-74
2022/02/13 09:33:26;;;;;;;305.52;78.78;;;;;;;;;;5087310;28;20582;-74
2022/02/13 09:35:54;;;;;;;301.35;76.88;;;;;;;;;;5086074;28;20204;-73
2022/02/13 09:38:23;;;;;;;301.35;77.68;;;;;;;;;;5086662;28;20204;-74
2022/02/13 09:40:51;;;;;;;307.13;76.65;;;;;;;;;;5086348;28;20198;-73
2022/02/13 09:43:23;;;;;;;305.67;79.00;;;;;;;;;;5084442;28;20248;-75
2022/02/13 09:45:51;;;;;;;311.77;79.50;;;;;;;;;;5085301;28;20298;-75
2022/02/13 09:48:20;;;;;;;320.90;79.10;;;;;;;;;;5087009;28;20206;-73
2022/02/13 09:50:50;;;;;;;313.60;77.40;;;;;;;;;;5084848;28;20243;-73
2022/02/13 09:53:18;;;;;;;313.60;79.68;;;;;;;;;;5086546;28;20229;-73
2022/02/13 09:55:47;;;;;;;324.73;81.45;;;;;;;;;;5085456;28;20205;-74
2022/02/13 09:58:17;;;;;;;326.52;82.53;;;;;;;;;;5086865;28;20212;-73
2022/02/13 10:00:55;;;;;;;314.10;77.00;;;;;;;;;;5085413;28;20221;-73
2022/02/13 10:03:24;;;;;;;323.88;79.90;;;;;;;;;;5085165;28;20667;-75
2022/02/13 10:05:54;;;;;;;339.60;87.28;;;;;;;;;;5095525;28;20232;-75
2022/02/13 10:08:33;;;;;;;329.55;82.15;;;;;;;;;;5095364;28;20209;-75
2022/02/13 10:11:08;;;;;;;318.58;78.57;;;;;;;;;;5075932;28;20471;-74
2022/02/13 10:13:46;;;;;;;328.33;80.85;;;;;;;;;;5075255;28;20198;-74
2022/02/13 10:16:16;;;;;;;336.63;82.00;;;;;;;;;;5077939;28;20217;-75
2022/02/13 10:18:48;;;;;;;332.60;82.13;;;;;;;;;;5084751;28;20228;-75
2022/02/13 10:21:31;;;;;;;334.42;85.88;;;;;;;;;;5080987;28;20259;-75
2022/02/13 10:24:22;;;;;;;332.10;85.10;;;;;;;;;;5069782;28;20205;-75
2022/02/13 10:26:53;;;;;;;334.23;85.32;;;;;;;;;;5093054;28;20221;-75
2022/02/13 10:29:22;;;;;;;331.90;83.15;;;;;;;;;;5095088;28;20244;-74
2022/02/13 10:31:52;;;;;;;326.13;84.85;;;;;;;;;;5084037;28;20206;-75
2022/02/13 10:34:26;;;;;;;335.98;86.45;;;;;;;;;;5089212;28;20197;-75
2022/02/13 10:36:53;;;;;;;336.13;90.80;;;;;;;;;;5086436;28;20775;-74
2022/02/13 10:39:25;;;;;;;349.58;86.95;;;;;;;;;;5087681;28;20446;-74
2022/02/13 10:42:12;;;;;;;342.40;85.35;;;;;;;;;;5083086;28;20611;-76
2022/02/13 10:44:40;;;;;;;334.38;85.78;;;;;;;;;;5087375;28;20204;-75
2022/02/13 10:47:24;;;;;;;331.20;85.00;;;;;;;;;;5085044;28;20230;-75
2022/02/13 10:49:55;;;;;;;331.35;84.65;;;;;;;;;;5086115;28;20254;-74
2022/02/13 10:52:27;;;;;;;329.27;86.20;;;;;;;;;;5074540;28;20481;-75
2022/02/13 10:54:55;;;;;;;331.83;89.30;;;;;;;;;;5090900;28;20259;-73
2022/02/13 10:57:24;;;;;;;326.63;82.63;;;;;;;;;;5088530;28;20669;-73
2022/02/13 10:59:52;;;;;;;319.38;83.88;;;;;;;;;;5089152;28;20598;-74
2022/02/13 11:02:21;;;;;;;327.67;87.68;;;;;;;;;;5090210;28;20280;-73
2022/02/13 11:04:52;;;;;;;323.42;82.10;;;;;;;;;;5095364;28;20256;-75
2022/02/13 11:07:23;;;;;;;331.40;87.82;;;;;;;;;;5089248;28;20236;-75
2022/02/13 11:09:57;;;;;;;317.90;84.22;;;;;;;;;;5092361;28;20210;-76
2022/02/13 11:12:27;;;;;;;333.83;86.90;;;;;;;;;;5097577;28;20227;-74
2022/02/13 11:15:14;;;;;;;326.70;84.78;;;;;;;;;;5099138;28;20201;-73
2022/02/13 11:17:44;;;;;;;330.45;86.32;;;;;;;;;;5097803;28;20649;-74
2022/02/13 11:20:13;;;;;;;340.55;92.13;;;;;;;;;;5099076;28;20653;-73
2022/02/13 11:22:42;;;;;;;322.80;89.88;;;;;;;;;;5091456;28;20484;-74
2022/02/13 11:25:18;;;;;;;319.98;82.13;;;;;;;;;;5085203;28;20203;-74
2022/02/13 11:28:00;;;;;;;322.60;82.07;;;;;;;;;;5088924;28;20648;-73
2022/02/13 11:30:53;;;;;;;;;;;;;;;;;;;;;
2022/02/13 11:33:49;;;;;;;323.52;83.60;;;;;;;;;;5093503;28;20567;-74
2022/02/13 11:36:27;;;;;;;317.70;83.30;;;;;;;;;;5099145;28;20201;-73
2022/02/13 11:39:01;;;;;;;317.73;80.68;;;;;;;;;;5099385;28;20209;-73
2022/02/13 11:41:50;;;;;;;314.95;79.00;;;;;;;;;;5099208;28;20213;-74
2022/02/13 11:44:34;;;;;;;312.40;83.90;;;;;;;;;;5095254;28;20286;-74
2022/02/13 11:47:02;;;;;;;313.38;87.68;;;;;;;;;;5093161;28;20221;-74
2022/02/13 11:49:30;;;;;;;312.00;79.50;;;;;;;;;;5091855;28;20541;-74
2022/02/13 11:51:59;;;;;;;315.55;82.65;;;;;;;;;;5090058;28;20202;-73
2022/02/13 11:54:47;;;;;;;313.02;81.15;;;;;;;;;;5088614;28;20202;-74
2022/02/13 11:57:27;;;;;;;310.08;80.25;;;;;;;;;;5078250;28;20201;-75
2022/02/13 12:00:14;;;;;;;303.40;77.38;;;;;;;;;;5078471;28;20202;-74
2022/02/13 12:02:50;;;;;;;307.77;78.80;;;;;;;;;;5078639;28;20210;-74
2022/02/13 12:05:33;;;;;;;316.27;82.75;;;;;;;;;;5080828;28;20624;-74
2022/02/13 12:08:12;;;;;;;323.30;92.82;;;;;;;;;;5093392;28;20315;-74
2022/02/13 12:10:46;;;;;;;315.88;80.45;;;;;;;;;;5089544;28;20208;-75
2022/02/13 12:13:16;;;;;;;313.45;82.28;;;;;;;;;;5086526;28;20198;-74
2022/02/13 12:16:04;;;;;;;311.70;79.72;;;;;;;;;;5091156;28;20204;-74
2022/02/13 12:18:37;;;;;;;314.77;83.07;;;;;;;;;;5088690;28;20621;-75
2022/02/13 12:21:06;;;;;;;313.35;81.25;;;;;;;;;;5095178;28;20213;-74
2022/02/13 12:23:44;;;;;;;314.83;83.03;;;;;;;;;;5098335;28;20194;-74
2022/02/13 12:26:35;;;;;;;314.83;82.88;;;;;;;;;;5086039;28;20232;-74
2022/02/13 12:29:24;;;;;;;;;;;;;;;;;;;;;
2022/02/13 12:32:10;;;;;;;319.70;86.18;;;;;;;;;;5089859;28;20206;-73
2022/02/13 12:35:01;;;;;;;311.23;80.97;;;;;;;;;;5096543;28;20206;-74
2022/02/13 12:37:45;;;;;;;316.83;80.18;;;;;;;;;;5091851;28;20221;-75
2022/02/13 12:40:19;;;;;;;316.90;81.18;;;;;;;;;;5085965;28;20293;-75
2022/02/13 12:42:53;;;;;;;326.27;80.97;;;;;;;;;;5087782;28;20216;-75
2022/02/13 12:45:22;;;;;;;326.13;88.10;;;;;;;;;;5095498;28;20560;-75
2022/02/13 12:47:55;;;;;;;323.92;86.28;;;;;;;;;;5096090;28;20256;-76
2022/02/13 12:50:31;;;;;;;321.65;84.47;;;;;;;;;;5094788;28;20202;-74
2022/02/13 12:53:14;;;;;;;315.42;82.43;;;;;;;;;;5095155;28;20219;-75
2022/02/13 12:55:43;;;;;;;310.83;76.90;;;;;;;;;;5096575;28;20202;-74
2022/02/13 12:58:15;;;;;;;309.35;81.30;;;;;;;;;;5096531;28;20211;-74
2022/02/13 13:00:48;;;;;;;312.42;85.35;;;;;;;;;;5096450;28;20354;-74
2022/02/13 13:03:23;;;;;;;319.23;90.50;;;;;;;;;;5092873;28;20243;-74
2022/02/13 13:05:52;;;;;;;322.27;81.47;;;;;;;;;;5093780;28;20208;-74
2022/02/13 13:08:20;;;;;;;321.40;80.63;;;;;;;;;;5095760;28;20282;-73
2022/02/13 13:10:50;;;;;;;327.13;85.00;;;;;;;;;;5095904;28;20209;-74
2022/02/13 13:13:18;;;;;;;317.52;85.00;;;;;;;;;;5095927;28;20201;-73
2022/02/13 13:18:49;;;;;;;320.15;109.07;;;;;;;;;;5058279;28;20195;-73
2022/02/13 13:21:21;;;;;;;318.65;96.50;;;;;;;;;;5087845;28;20199;-72
2022/02/13 13:24:09;;;;;;;328.00;93.00;;;;;;;;;;5084049;28;20266;-73
2022/02/13 13:26:37;;;;;;;312.63;84.53;;;;;;;;;;5076244;28;20490;-73
2022/02/13 13:29:22;;;;;;;314.23;89.35;;;;;;;;;;5095107;28;20208;-73
2022/02/13 13:32:05;;;;;;;325.10;90.53;;;;;;;;;;5095398;28;20267;-73
2022/02/13 13:34:37;;;;;;;321.98;85.85;;;;;;;;;;5096335;28;20300;-75
2022/02/13 13:37:26;;;;;;;313.58;81.90;;;;;;;;;;5096002;28;20303;-73
2022/02/13 13:40:03;;;;;;;325.77;83.22;;;;;;;;;;5090176;28;20197;-74
2022/02/13 13:42:32;;;;;;;306.80;80.38;;;;;;;;;;5095036;28;20212;-73
2022/02/13 13:45:21;;;;;;;320.02;80.38;;;;;;;;;;5095100;28;20489;-74
2022/02/13 13:47:52;;;;;;;314.10;86.15;;;;;;;;;;5091741;28;20221;-74
2022/02/13 13:50:23;;;;;;;328.77;87.57;;;;;;;;;;5094141;28;20202;-73
2022/02/13 13:52:59;;;;;;;324.05;83.32;;;;;;;;;;5083731;28;20205;-74
2022/02/13 13:55:47;;;;;;;317.88;97.32;;;;;;;;;;5083775;28;20208;-74
2022/02/13 13:58:15;;;;;;;316.63;90.03;;;;;;;;;;5085750;28;20289;-74
2022/02/13 14:00:51;;;;;;;327.38;90.60;;;;;;;;;;5083427;28;20205;-74
2022/02/13 14:03:19;;;;;;;319.55;93.68;;;;;;;;;;5096213;28;20228;-73
2022/02/13 14:05:50;;;;;;;320.88;91.90;;;;;;;;;;5094172;28;20210;-73
2022/02/13 14:08:20;;;;;;;303.15;87.03;;;;;;;;;;5094611;28;20229;-73
2022/02/13 14:10:51;;;;;;;311.23;83.75;;;;;;;;;;5094356;28;20515;-73
2022/02/13 14:13:20;;;;;;;309.83;87.18;;;;;;;;;;5086602;28;20295;-74
2022/02/13 14:15:49;;;;;;;329.70;98.22;;;;;;;;;;5084972;28;20210;-74
2022/02/13 14:18:20;;;;;;;342.02;91.55;;;;;;;;;;5083667;28;20206;-74
2022/02/13 14:20:48;;;;;;;311.75;92.88;;;;;;;;;;5074475;28;20285;-74
2022/02/13 14:23:16;;;;;;;345.83;98.30;;;;;;;;;;5082846;28;20201;-74
2022/02/13 14:25:46;;;;;;;334.67;94.50;;;;;;;;;;5093539;28;20466;-74
2022/02/13 14:28:19;;;;;;;334.07;95.17;;;;;;;;;;5091351;28;20934;-75
2022/02/13 14:30:54;;;;;;;326.47;94.03;;;;;;;;;;5080521;28;20474;-75
2022/02/13 14:33:22;;;;;;;332.90;89.83;;;;;;;;;;5073384;28;20728;-74
2022/02/13 14:35:51;;;;;;;348.40;96.07;;;;;;;;;;5089655;28;20463;-74